sensor_id;sensor_type;location;lat;lon;timestamp;pressure;altitude;pressure_sealevel;temperature;humidity
52935;BME280;38802;50.198;19.796;2023-05-12T00:00:58;96384.62;;;9.34;54.46
52935;BME280;38802;50.198;19.796;2023-05-12T00:03:25;96386.36;;;9.29;54.34
52935;BME280;38802;50.198;19.796;2023-05-12T00:05:52;96382.65;;;9.28;54.45
52935;BME280;38802;50.198;19.796;2023-05-12T00:08:19;96387.04;;;9.25;54.67
52935;BME280;38802;50.198;19.796;2023-05-12T00:10:45;96386.36;;;9.21;55.16
52935;BME280;38802;50.198;19.796;2023-05-12T00:13:12;96387.39;;;9.16;54.95
52935;BME280;38802;50.198;19.796;2023-05-12T00:15:40;96385.94;;;9.12;55.01
52935;BME280;38802;50.198;19.796;2023-05-12T00:18:06;96385.81;;;9.09;55.43
52935;BME280;38802;50.198;19.796;2023-05-12T00:20:33;96385.45;;;9.04;55.38
52935;BME280;38802;50.198;19.796;2023-05-12T00:23:00;96386.78;;;9.01;55.81
52935;BME280;38802;50.198;19.796;2023-05-12T00:25:26;96389.05;;;8.96;55.79
52935;BME280;38802;50.198;19.796;2023-05-12T00:27:53;96389.39;;;8.91;55.75
52935;BME280;38802;50.198;19.796;2023-05-12T00:30:19;96391.83;;;8.86;55.93
52935;BME280;38802;50.198;19.796;2023-05-12T00:32:47;96390.83;;;8.83;56.05
52935;BME280;38802;50.198;19.796;2023-05-12T00:35:15;96391.48;;;8.79;56.16
52935;BME280;38802;50.198;19.796;2023-05-12T00:37:42;96394.45;;;8.74;56.47
52935;BME280;38802;50.198;19.796;2023-05-12T00:40:09;96390.68;;;8.69;56.73
52935;BME280;38802;50.198;19.796;2023-05-12T00:42:36;96391.58;;;8.63;56.93
52935;BME280;38802;50.198;19.796;2023-05-12T00:45:03;96396.39;;;8.59;56.78
52935;BME280;38802;50.198;19.796;2023-05-12T00:47:30;96393.20;;;8.55;57.09
52935;BME280;38802;50.198;19.796;2023-05-12T00:49:57;96394.35;;;8.51;56.70
52935;BME280;38802;50.198;19.796;2023-05-12T00:52:25;96392.83;;;8.48;57.22
52935;BME280;38802;50.198;19.796;2023-05-12T00:54:52;96391.99;;;8.43;57.51
52935;BME280;38802;50.198;19.796;2023-05-12T00:57:21;96394.27;;;8.40;57.32
52935;BME280;38802;50.198;19.796;2023-05-12T00:59:48;96393.12;;;8.37;57.65
52935;BME280;38802;50.198;19.796;2023-05-12T01:02:15;96390.88;;;8.34;57.54
52935;BME280;38802;50.198;19.796;2023-05-12T01:04:42;96395.74;;;8.31;57.68
52935;BME280;38802;50.198;19.796;2023-05-12T01:09:43;96396.05;;;8.27;57.71
52935;BME280;38802;50.198;19.796;2023-05-12T01:12:12;96398.38;;;8.26;57.86
52935;BME280;38802;50.198;19.796;2023-05-12T01:14:44;96398.34;;;8.24;57.91
52935;BME280;38802;50.198;19.796;2023-05-12T01:17:11;96399.60;;;8.23;57.90
52935;BME280;38802;50.198;19.796;2023-05-12T01:19:50;96398.79;;;8.22;58.19
52935;BME280;38802;50.198;19.796;2023-05-12T01:22:17;96400.45;;;8.20;58.47
52935;BME280;38802;50.198;19.796;2023-05-12T01:24:49;96401.77;;;8.19;58.36
52935;BME280;38802;50.198;19.796;2023-05-12T01:27:17;96402.04;;;8.17;58.24
52935;BME280;38802;50.198;19.796;2023-05-12T01:29:46;96398.02;;;8.16;58.18
52935;BME280;38802;50.198;19.796;2023-05-12T01:32:15;96398.43;;;8.12;58.51
52935;BME280;38802;50.198;19.796;2023-05-12T01:34:42;96399.71;;;8.11;58.78
52935;BME280;38802;50.198;19.796;2023-05-12T01:37:10;96397.89;;;8.08;58.79
52935;BME280;38802;50.198;19.796;2023-05-12T01:39:37;96398.19;;;8.06;58.71
52935;BME280;38802;50.198;19.796;2023-05-12T01:42:04;96402.97;;;8.05;59.07
52935;BME280;38802;50.198;19.796;2023-05-12T01:44:32;96401.23;;;8.02;59.28
52935;BME280;38802;50.198;19.796;2023-05-12T01:46:59;96402.06;;;8.00;59.48
52935;BME280;38802;50.198;19.796;2023-05-12T01:49:29;96402.63;;;7.97;59.30
52935;BME280;38802;50.198;19.796;2023-05-12T01:51:55;96406.18;;;7.96;59.32
52935;BME280;38802;50.198;19.796;2023-05-12T01:54:28;96403.04;;;7.91;59.75
52935;BME280;38802;50.198;19.796;2023-05-12T01:56:54;96405.77;;;7.87;59.69
52935;BME280;38802;50.198;19.796;2023-05-12T01:59:21;96407.42;;;7.85;59.61
52935;BME280;38802;50.198;19.796;2023-05-12T02:01:48;96408.08;;;7.86;59.84
52935;BME280;38802;50.198;19.796;2023-05-12T02:04:18;96403.44;;;7.83;60.12
52935;BME280;38802;50.198;19.796;2023-05-12T02:06:46;96405.72;;;7.82;60.16
52935;BME280;38802;50.198;19.796;2023-05-12T02:09:12;96402.77;;;7.77;60.04
52935;BME280;38802;50.198;19.796;2023-05-12T02:11:39;96403.62;;;7.75;60.31
52935;BME280;38802;50.198;19.796;2023-05-12T02:14:06;96399.31;;;7.72;60.42
52935;BME280;38802;50.198;19.796;2023-05-12T02:16:33;96402.66;;;7.69;60.53
52935;BME280;38802;50.198;19.796;2023-05-12T02:19:00;96398.48;;;7.62;60.77
52935;BME280;38802;50.198;19.796;2023-05-12T02:21:27;96399.07;;;7.58;60.84
52935;BME280;38802;50.198;19.796;2023-05-12T02:23:53;96397.13;;;7.56;60.62
52935;BME280;38802;50.198;19.796;2023-05-12T02:26:21;96398.55;;;7.53;60.42
52935;BME280;38802;50.198;19.796;2023-05-12T02:28:48;96400.36;;;7.52;60.61
52935;BME280;38802;50.198;19.796;2023-05-12T02:31:15;96401.75;;;7.49;60.65
52935;BME280;38802;50.198;19.796;2023-05-12T02:33:41;96403.47;;;7.47;60.67
52935;BME280;38802;50.198;19.796;2023-05-12T02:36:08;96406.14;;;7.43;60.91
52935;BME280;38802;50.198;19.796;2023-05-12T02:38:35;96405.25;;;7.41;60.83
52935;BME280;38802;50.198;19.796;2023-05-12T02:41:02;96405.57;;;7.39;60.97
52935;BME280;38802;50.198;19.796;2023-05-12T02:43:28;96408.52;;;7.36;61.13
52935;BME280;38802;50.198;19.796;2023-05-12T02:45:55;96411.31;;;7.33;61.09
52935;BME280;38802;50.198;19.796;2023-05-12T02:48:21;96412.88;;;7.33;61.20
52935;BME280;38802;50.198;19.796;2023-05-12T02:50:48;96410.17;;;7.32;61.08
52935;BME280;38802;50.198;19.796;2023-05-12T02:53:15;96406.77;;;7.31;61.56
52935;BME280;38802;50.198;19.796;2023-05-12T02:55:41;96410.84;;;7.30;61.44
52935;BME280;38802;50.198;19.796;2023-05-12T02:58:08;96408.80;;;7.26;61.44
52935;BME280;38802;50.198;19.796;2023-05-12T03:00:35;96411.16;;;7.24;61.23
52935;BME280;38802;50.198;19.796;2023-05-12T03:03:02;96408.57;;;7.24;61.76
52935;BME280;38802;50.198;19.796;2023-05-12T03:05:28;96411.31;;;7.22;61.73
52935;BME280;38802;50.198;19.796;2023-05-12T03:07:55;96406.14;;;7.19;61.87
52935;BME280;38802;50.198;19.796;2023-05-12T03:10:22;96407.23;;;7.21;61.57
52935;BME280;38802;50.198;19.796;2023-05-12T03:12:49;96403.95;;;7.21;61.55
52935;BME280;38802;50.198;19.796;2023-05-12T03:15:16;96405.62;;;7.19;61.77
52935;BME280;38802;50.198;19.796;2023-05-12T03:17:43;96399.95;;;7.19;62.09
52935;BME280;38802;50.198;19.796;2023-05-12T03:20:09;96399.06;;;7.17;62.02
52935;BME280;38802;50.198;19.796;2023-05-12T03:22:36;96400.73;;;7.15;62.03
52935;BME280;38802;50.198;19.796;2023-05-12T03:25:03;96397.80;;;7.15;62.42
52935;BME280;38802;50.198;19.796;2023-05-12T03:27:31;96397.59;;;7.13;62.38
52935;BME280;38802;50.198;19.796;2023-05-12T03:29:58;96393.98;;;7.10;62.78
52935;BME280;38802;50.198;19.796;2023-05-12T03:32:31;96395.77;;;7.09;62.95
52935;BME280;38802;50.198;19.796;2023-05-12T03:34:58;96397.23;;;7.05;63.17
52935;BME280;38802;50.198;19.796;2023-05-12T03:37:24;96398.03;;;7.04;63.19
52935;BME280;38802;50.198;19.796;2023-05-12T03:39:51;96400.80;;;7.04;63.56
52935;BME280;38802;50.198;19.796;2023-05-12T03:42:21;96397.38;;;7.03;63.30
52935;BME280;38802;50.198;19.796;2023-05-12T03:44:52;96398.90;;;7.04;63.47
52935;BME280;38802;50.198;19.796;2023-05-12T03:47:19;96397.98;;;7.05;63.42
52935;BME280;38802;50.198;19.796;2023-05-12T03:49:45;96401.37;;;7.06;63.32
52935;BME280;38802;50.198;19.796;2023-05-12T03:52:12;96401.48;;;7.07;63.41
52935;BME280;38802;50.198;19.796;2023-05-12T03:54:39;96402.46;;;7.10;63.77
52935;BME280;38802;50.198;19.796;2023-05-12T03:57:06;96407.77;;;7.11;63.65
52935;BME280;38802;50.198;19.796;2023-05-12T03:59:33;96408.27;;;7.11;63.75
52935;BME280;38802;50.198;19.796;2023-05-12T04:01:59;96407.70;;;7.12;63.62
52935;BME280;38802;50.198;19.796;2023-05-12T04:04:27;96403.83;;;7.15;63.51
52935;BME280;38802;50.198;19.796;2023-05-12T04:06:53;96408.57;;;7.19;63.86
52935;BME280;38802;50.198;19.796;2023-05-12T04:09:20;96406.36;;;7.24;63.93
52935;BME280;38802;50.198;19.796;2023-05-12T04:11:46;96407.48;;;7.25;64.20
52935;BME280;38802;50.198;19.796;2023-05-12T04:17:56;96411.41;;;7.37;64.31
52935;BME280;38802;50.198;19.796;2023-05-12T04:20:23;96405.14;;;7.40;64.11
52935;BME280;38802;50.198;19.796;2023-05-12T04:22:49;96410.45;;;7.46;64.05
52935;BME280;38802;50.198;19.796;2023-05-12T04:25:16;96410.52;;;7.52;63.86
52935;BME280;38802;50.198;19.796;2023-05-12T04:27:43;96416.94;;;7.57;64.21
52935;BME280;38802;50.198;19.796;2023-05-12T04:31:59;96419.22;;;7.69;64.12
52935;BME280;38802;50.198;19.796;2023-05-12T04:34:27;96417.42;;;7.75;64.09
52935;BME280;38802;50.198;19.796;2023-05-12T04:36:55;96420.15;;;7.81;63.94
52935;BME280;38802;50.198;19.796;2023-05-12T04:39:23;96418.80;;;7.89;64.04
52935;BME280;38802;50.198;19.796;2023-05-12T04:41:52;96417.85;;;7.95;64.08
52935;BME280;38802;50.198;19.796;2023-05-12T04:44:22;96419.69;;;8.01;63.90
52935;BME280;38802;50.198;19.796;2023-05-12T04:46:51;96423.27;;;8.11;63.68
52935;BME280;38802;50.198;19.796;2023-05-12T04:49:22;96418.96;;;8.18;63.76
52935;BME280;38802;50.198;19.796;2023-05-12T04:51:50;96416.77;;;8.30;63.51
52935;BME280;38802;50.198;19.796;2023-05-12T04:54:18;96424.20;;;8.43;63.43
52935;BME280;38802;50.198;19.796;2023-05-12T04:56:46;96430.23;;;8.58;63.32
52935;BME280;38802;50.198;19.796;2023-05-12T04:59:14;96429.17;;;8.73;63.09
52935;BME280;38802;50.198;19.796;2023-05-12T05:01:44;96430.76;;;8.92;62.92
52935;BME280;38802;50.198;19.796;2023-05-12T05:04:14;96432.59;;;9.09;62.79
52935;BME280;38802;50.198;19.796;2023-05-12T05:06:42;96430.82;;;9.26;62.41
52935;BME280;38802;50.198;19.796;2023-05-12T05:09:10;96427.38;;;9.42;62.17
52935;BME280;38802;50.198;19.796;2023-05-12T05:11:38;96424.94;;;9.56;61.94
52935;BME280;38802;50.198;19.796;2023-05-12T05:14:06;96426.73;;;9.76;61.71
52935;BME280;38802;50.198;19.796;2023-05-12T05:16:35;96426.80;;;9.93;61.44
52935;BME280;38802;50.198;19.796;2023-05-12T05:19:03;96429.88;;;10.12;61.01
52935;BME280;38802;50.198;19.796;2023-05-12T05:21:38;96430.41;;;10.28;60.96
52935;BME280;38802;50.198;19.796;2023-05-12T05:24:07;96428.48;;;10.46;60.58
52935;BME280;38802;50.198;19.796;2023-05-12T05:26:36;96431.48;;;10.54;60.00
52935;BME280;38802;50.198;19.796;2023-05-12T05:29:04;96429.24;;;10.58;59.69
52935;BME280;38802;50.198;19.796;2023-05-12T05:31:32;96432.34;;;10.72;59.81
52935;BME280;38802;50.198;19.796;2023-05-12T05:34:00;96435.89;;;10.86;59.26
52935;BME280;38802;50.198;19.796;2023-05-12T05:36:29;96435.35;;;11.06;59.46
52935;BME280;38802;50.198;19.796;2023-05-12T05:38:58;96439.33;;;11.19;58.77
52935;BME280;38802;50.198;19.796;2023-05-12T05:41:26;96439.06;;;11.31;58.68
52935;BME280;38802;50.198;19.796;2023-05-12T05:43:54;96444.30;;;11.30;58.38
52935;BME280;38802;50.198;19.796;2023-05-12T05:46:22;96442.39;;;11.30;58.63
52935;BME280;38802;50.198;19.796;2023-05-12T05:48:51;96448.02;;;11.40;58.36
52935;BME280;38802;50.198;19.796;2023-05-12T05:51:19;96450.15;;;11.40;58.40
52935;BME280;38802;50.198;19.796;2023-05-12T05:53:48;96452.71;;;11.53;58.41
52935;BME280;38802;50.198;19.796;2023-05-12T05:56:16;96446.79;;;11.74;58.06
52935;BME280;38802;50.198;19.796;2023-05-12T05:58:44;96450.55;;;12.00;58.28
52935;BME280;38802;50.198;19.796;2023-05-12T06:01:13;96457.98;;;12.25;57.65
52935;BME280;38802;50.198;19.796;2023-05-12T06:03:42;96456.20;;;12.26;57.41
52935;BME280;38802;50.198;19.796;2023-05-12T06:06:10;96457.40;;;12.24;56.68
52935;BME280;38802;50.198;19.796;2023-05-12T06:08:38;96459.58;;;12.35;56.87
52935;BME280;38802;50.198;19.796;2023-05-12T06:11:06;96456.55;;;12.48;56.87
52935;BME280;38802;50.198;19.796;2023-05-12T06:13:34;96455.77;;;12.71;56.53
52935;BME280;38802;50.198;19.796;2023-05-12T06:16:03;96456.80;;;12.85;55.83
52935;BME280;38802;50.198;19.796;2023-05-12T06:18:33;96458.88;;;12.93;55.68
52935;BME280;38802;50.198;19.796;2023-05-12T06:21:05;96462.64;;;13.00;55.60
52935;BME280;38802;50.198;19.796;2023-05-12T06:23:33;96466.11;;;13.08;55.25
52935;BME280;38802;50.198;19.796;2023-05-12T06:26:01;96464.63;;;13.07;54.46
52935;BME280;38802;50.198;19.796;2023-05-12T06:28:33;96461.95;;;13.14;54.63
52935;BME280;38802;50.198;19.796;2023-05-12T06:31:01;96465.63;;;13.31;55.03
52935;BME280;38802;50.198;19.796;2023-05-12T06:33:29;96465.64;;;13.53;54.21
52935;BME280;38802;50.198;19.796;2023-05-12T06:35:57;96464.35;;;13.61;54.16
52935;BME280;38802;50.198;19.796;2023-05-12T06:38:25;96466.66;;;13.66;54.07
52935;BME280;38802;50.198;19.796;2023-05-12T06:40:53;96465.48;;;13.81;54.30
52935;BME280;38802;50.198;19.796;2023-05-12T06:43:21;96460.38;;;13.99;53.95
52935;BME280;38802;50.198;19.796;2023-05-12T06:45:54;96462.44;;;14.18;53.82
52935;BME280;38802;50.198;19.796;2023-05-12T06:48:23;96460.96;;;14.36;53.35
52935;BME280;38802;50.198;19.796;2023-05-12T06:50:55;96461.80;;;14.38;52.71
52935;BME280;38802;50.198;19.796;2023-05-12T06:53:28;96463.79;;;14.43;53.17
52935;BME280;38802;50.198;19.796;2023-05-12T06:55:56;96465.90;;;14.56;52.76
52935;BME280;38802;50.198;19.796;2023-05-12T06:58:24;96462.23;;;14.68;52.48
52935;BME280;38802;50.198;19.796;2023-05-12T07:00:52;96461.82;;;14.80;52.17
52935;BME280;38802;50.198;19.796;2023-05-12T07:03:20;96464.07;;;14.91;51.49
52935;BME280;38802;50.198;19.796;2023-05-12T07:05:48;96465.45;;;14.95;51.54
52935;BME280;38802;50.198;19.796;2023-05-12T07:08:16;96467.06;;;14.95;51.60
52935;BME280;38802;50.198;19.796;2023-05-12T07:10:44;96464.93;;;14.86;51.16
52935;BME280;38802;50.198;19.796;2023-05-12T07:13:12;96468.57;;;14.83;51.50
52935;BME280;38802;50.198;19.796;2023-05-12T07:15:40;96467.00;;;14.92;51.22
52935;BME280;38802;50.198;19.796;2023-05-12T07:18:08;96463.38;;;15.00;50.48
52935;BME280;38802;50.198;19.796;2023-05-12T07:20:36;96463.55;;;15.04;50.88
52935;BME280;38802;50.198;19.796;2023-05-12T07:23:04;96462.47;;;15.08;50.41
52935;BME280;38802;50.198;19.796;2023-05-12T07:25:32;96467.18;;;15.10;50.16
52935;BME280;38802;50.198;19.796;2023-05-12T07:28:00;96469.52;;;15.04;50.07
52935;BME280;38802;50.198;19.796;2023-05-12T07:30:29;96469.46;;;15.11;50.21
52935;BME280;38802;50.198;19.796;2023-05-12T07:32:57;96472.77;;;15.28;50.18
52935;BME280;38802;50.198;19.796;2023-05-12T07:35:26;96467.02;;;15.44;49.88
52935;BME280;38802;50.198;19.796;2023-05-12T07:37:54;96467.67;;;15.50;50.17
52935;BME280;38802;50.198;19.796;2023-05-12T07:40:22;96473.23;;;15.63;49.89
52935;BME280;38802;50.198;19.796;2023-05-12T07:42:50;96474.88;;;15.62;49.71
52935;BME280;38802;50.198;19.796;2023-05-12T07:45:19;96471.79;;;15.70;49.58
52935;BME280;38802;50.198;19.796;2023-05-12T07:47:50;96472.41;;;15.71;49.82
52935;BME280;38802;50.198;19.796;2023-05-12T07:50:18;96474.91;;;15.80;49.24
52935;BME280;38802;50.198;19.796;2023-05-12T07:52:51;96476.32;;;15.79;49.29
52935;BME280;38802;50.198;19.796;2023-05-12T07:55:20;96481.77;;;15.91;49.54
52935;BME280;38802;50.198;19.796;2023-05-12T07:57:49;96480.84;;;16.06;49.55
52935;BME280;38802;50.198;19.796;2023-05-12T08:00:17;96477.50;;;16.13;48.72
52935;BME280;38802;50.198;19.796;2023-05-12T08:02:45;96479.95;;;16.04;48.55
52935;BME280;38802;50.198;19.796;2023-05-12T08:05:14;96482.80;;;16.02;48.90
52935;BME280;38802;50.198;19.796;2023-05-12T08:07:42;96479.41;;;16.13;48.93
52935;BME280;38802;50.198;19.796;2023-05-12T08:10:11;96482.58;;;16.16;48.53
52935;BME280;38802;50.198;19.796;2023-05-12T08:12:40;96485.20;;;16.18;49.00
52935;BME280;38802;50.198;19.796;2023-05-12T08:15:08;96486.30;;;16.21;48.83
52935;BME280;38802;50.198;19.796;2023-05-12T08:17:37;96485.17;;;16.26;48.57
52935;BME280;38802;50.198;19.796;2023-05-12T08:20:05;96484.10;;;16.22;48.57
52935;BME280;38802;50.198;19.796;2023-05-12T08:22:33;96487.21;;;16.23;48.73
52935;BME280;38802;50.198;19.796;2023-05-12T08:25:01;96486.23;;;16.29;48.81
52935;BME280;38802;50.198;19.796;2023-05-12T08:27:29;96486.64;;;16.30;48.95
52935;BME280;38802;50.198;19.796;2023-05-12T08:29:57;96488.77;;;16.33;48.80
52935;BME280;38802;50.198;19.796;2023-05-12T08:32:25;96488.58;;;16.41;48.71
52935;BME280;38802;50.198;19.796;2023-05-12T08:34:53;96487.67;;;16.46;48.73
52935;BME280;38802;50.198;19.796;2023-05-12T08:37:22;96485.90;;;16.53;48.90
52935;BME280;38802;50.198;19.796;2023-05-12T08:39:50;96490.48;;;16.66;48.88
52935;BME280;38802;50.198;19.796;2023-05-12T08:42:29;96491.14;;;16.77;48.81
52935;BME280;38802;50.198;19.796;2023-05-12T08:45:01;96495.88;;;16.89;48.21
52935;BME280;38802;50.198;19.796;2023-05-12T08:47:32;96499.06;;;16.96;48.31
52935;BME280;38802;50.198;19.796;2023-05-12T08:50:02;96499.02;;;17.00;47.71
52935;BME280;38802;50.198;19.796;2023-05-12T08:52:33;96497.67;;;16.96;47.65
52935;BME280;38802;50.198;19.796;2023-05-12T08:55:03;96495.92;;;17.02;47.68
52935;BME280;38802;50.198;19.796;2023-05-12T08:57:31;96493.63;;;17.03;47.69
52935;BME280;38802;50.198;19.796;2023-05-12T09:00:01;96495.35;;;17.09;47.62
52935;BME280;38802;50.198;19.796;2023-05-12T09:02:30;96494.77;;;17.15;47.20
52935;BME280;38802;50.198;19.796;2023-05-12T09:05:18;96494.95;;;17.19;47.58
52935;BME280;38802;50.198;19.796;2023-05-12T09:07:47;96493.58;;;17.36;48.05
52935;BME280;38802;50.198;19.796;2023-05-12T09:10:18;96498.16;;;17.52;47.20
52935;BME280;38802;50.198;19.796;2023-05-12T09:16:01;96500.56;;;17.48;46.48
52935;BME280;38802;50.198;19.796;2023-05-12T09:18:49;96498.36;;;17.55;46.80
52935;BME280;38802;50.198;19.796;2023-05-12T09:21:18;96497.30;;;17.67;46.50
52935;BME280;38802;50.198;19.796;2023-05-12T09:24:00;96491.52;;;17.72;46.43
52935;BME280;38802;50.198;19.796;2023-05-12T09:29:14;96491.17;;;17.80;45.85
52935;BME280;38802;50.198;19.796;2023-05-12T09:31:58;96491.41;;;17.90;46.25
52935;BME280;38802;50.198;19.796;2023-05-12T09:34:29;96488.63;;;17.91;45.42
52935;BME280;38802;50.198;19.796;2023-05-12T09:36:59;96487.55;;;17.80;45.29
52935;BME280;38802;50.198;19.796;2023-05-12T09:39:27;96488.41;;;17.80;45.58
52935;BME280;38802;50.198;19.796;2023-05-12T09:41:56;96495.20;;;17.81;45.74
52935;BME280;38802;50.198;19.796;2023-05-12T09:44:25;96491.77;;;17.88;45.52
52935;BME280;38802;50.198;19.796;2023-05-12T09:46:53;96485.80;;;17.96;45.45
52935;BME280;38802;50.198;19.796;2023-05-12T09:49:23;96482.92;;;18.03;45.32
52935;BME280;38802;50.198;19.796;2023-05-12T09:51:55;96480.77;;;18.19;46.07
52935;BME280;38802;50.198;19.796;2023-05-12T09:54:28;96480.06;;;18.32;45.08
52935;BME280;38802;50.198;19.796;2023-05-12T09:56:58;96483.48;;;18.35;45.14
52935;BME280;38802;50.198;19.796;2023-05-12T09:59:31;96479.95;;;18.37;43.81
52935;BME280;38802;50.198;19.796;2023-05-12T10:02:01;96481.14;;;18.39;44.14
52935;BME280;38802;50.198;19.796;2023-05-12T10:04:36;96481.22;;;18.46;43.14
52935;BME280;38802;50.198;19.796;2023-05-12T10:07:11;96478.75;;;18.54;43.97
52935;BME280;38802;50.198;19.796;2023-05-12T10:09:41;96477.45;;;18.56;43.15
52935;BME280;38802;50.198;19.796;2023-05-12T10:12:09;96474.61;;;18.36;43.10
52935;BME280;38802;50.198;19.796;2023-05-12T10:14:39;96472.75;;;18.16;42.46
52935;BME280;38802;50.198;19.796;2023-05-12T10:17:08;96472.54;;;18.08;42.09
52935;BME280;38802;50.198;19.796;2023-05-12T10:19:37;96474.55;;;18.09;41.70
52935;BME280;38802;50.198;19.796;2023-05-12T10:22:11;96468.60;;;18.18;41.79
52935;BME280;38802;50.198;19.796;2023-05-12T10:24:43;96476.80;;;18.32;41.92
52935;BME280;38802;50.198;19.796;2023-05-12T10:27:14;96466.54;;;18.46;41.54
52935;BME280;38802;50.198;19.796;2023-05-12T10:29:43;96472.42;;;18.43;41.64
52935;BME280;38802;50.198;19.796;2023-05-12T10:32:11;96468.96;;;18.23;41.13
52935;BME280;38802;50.198;19.796;2023-05-12T10:34:39;96474.68;;;18.22;40.93
52935;BME280;38802;50.198;19.796;2023-05-12T10:37:09;96469.91;;;18.27;40.41
52935;BME280;38802;50.198;19.796;2023-05-12T10:39:56;96470.27;;;18.29;40.03
52935;BME280;38802;50.198;19.796;2023-05-12T10:42:36;96466.09;;;18.32;40.08
52935;BME280;38802;50.198;19.796;2023-05-12T10:45:14;96467.80;;;18.35;39.93
52935;BME280;38802;50.198;19.796;2023-05-12T10:47:45;96464.09;;;18.23;39.56
52935;BME280;38802;50.198;19.796;2023-05-12T10:50:25;96470.33;;;18.24;39.54
52935;BME280;38802;50.198;19.796;2023-05-12T10:52:56;96465.02;;;18.22;40.36
52935;BME280;38802;50.198;19.796;2023-05-12T10:55:35;96464.64;;;18.16;39.96
52935;BME280;38802;50.198;19.796;2023-05-12T10:58:12;96470.52;;;18.07;40.22
52935;BME280;38802;50.198;19.796;2023-05-12T11:00:43;96474.23;;;17.86;40.66
52935;BME280;38802;50.198;19.796;2023-05-12T11:03:13;96474.73;;;17.73;40.29
52935;BME280;38802;50.198;19.796;2023-05-12T11:05:45;96475.20;;;17.52;40.36
52935;BME280;38802;50.198;19.796;2023-05-12T11:08:14;96477.95;;;17.43;40.32
52935;BME280;38802;50.198;19.796;2023-05-12T11:10:44;96476.27;;;17.39;40.20
52935;BME280;38802;50.198;19.796;2023-05-12T11:13:13;96482.92;;;17.34;40.59
52935;BME280;38802;50.198;19.796;2023-05-12T11:15:45;96478.60;;;17.35;41.10
52935;BME280;38802;50.198;19.796;2023-05-12T11:18:19;96478.55;;;17.37;41.37
52935;BME280;38802;50.198;19.796;2023-05-12T11:20:48;96484.10;;;17.29;41.25
52935;BME280;38802;50.198;19.796;2023-05-12T11:23:26;96478.10;;;17.23;41.52
52935;BME280;38802;50.198;19.796;2023-05-12T11:25:56;96471.98;;;17.31;41.61
52935;BME280;38802;50.198;19.796;2023-05-12T11:28:24;96478.11;;;17.41;41.56
52935;BME280;38802;50.198;19.796;2023-05-12T11:30:52;96472.06;;;17.44;41.11
52935;BME280;38802;50.198;19.796;2023-05-12T11:33:22;96472.20;;;17.50;41.14
52935;BME280;38802;50.198;19.796;2023-05-12T11:35:50;96471.73;;;17.50;40.94
52935;BME280;38802;50.198;19.796;2023-05-12T11:38:20;96474.05;;;17.51;41.23
52935;BME280;38802;50.198;19.796;2023-05-12T11:40:51;96479.86;;;17.41;40.37
52935;BME280;38802;50.198;19.796;2023-05-12T11:43:20;96478.86;;;17.34;40.46
52935;BME280;38802;50.198;19.796;2023-05-12T11:45:48;96475.27;;;17.42;40.67
52935;BME280;38802;50.198;19.796;2023-05-12T11:48:17;96474.86;;;17.44;40.68
52935;BME280;38802;50.198;19.796;2023-05-12T11:50:45;96483.09;;;17.41;40.43
52935;BME280;38802;50.198;19.796;2023-05-12T11:53:17;96483.11;;;17.27;39.40
52935;BME280;38802;50.198;19.796;2023-05-12T11:55:50;96485.48;;;17.10;40.18
52935;BME280;38802;50.198;19.796;2023-05-12T11:58:26;96490.45;;;16.99;40.23
52935;BME280;38802;50.198;19.796;2023-05-12T12:01:08;96485.34;;;16.96;40.06
52935;BME280;38802;50.198;19.796;2023-05-12T12:03:45;96485.40;;;16.95;39.68
52935;BME280;38802;50.198;19.796;2023-05-12T12:06:17;96484.41;;;16.93;40.12
52935;BME280;38802;50.198;19.796;2023-05-12T12:08:54;96476.84;;;17.05;40.40
52935;BME280;38802;50.198;19.796;2023-05-12T12:11:24;96479.77;;;17.17;40.47
52935;BME280;38802;50.198;19.796;2023-05-12T12:13:57;96484.50;;;17.15;40.45
52935;BME280;38802;50.198;19.796;2023-05-12T12:16:26;96477.58;;;17.26;40.72
52935;BME280;38802;50.198;19.796;2023-05-12T12:18:55;96484.79;;;17.35;41.11
52935;BME280;38802;50.198;19.796;2023-05-12T12:21:24;96477.59;;;17.43;40.49
52935;BME280;38802;50.198;19.796;2023-05-12T12:23:52;96475.45;;;17.43;40.23
52935;BME280;38802;50.198;19.796;2023-05-12T12:26:20;96471.44;;;17.46;40.72
52935;BME280;38802;50.198;19.796;2023-05-12T12:28:49;96471.79;;;17.64;40.46
52935;BME280;38802;50.198;19.796;2023-05-12T12:31:17;96472.73;;;17.74;40.71
52935;BME280;38802;50.198;19.796;2023-05-12T12:33:45;96471.40;;;17.88;40.18
52935;BME280;38802;50.198;19.796;2023-05-12T12:36:13;96470.09;;;17.85;40.49
52935;BME280;38802;50.198;19.796;2023-05-12T12:38:41;96471.30;;;17.89;40.11
52935;BME280;38802;50.198;19.796;2023-05-12T12:41:09;96466.83;;;17.86;40.01
52935;BME280;38802;50.198;19.796;2023-05-12T12:43:37;96469.88;;;17.87;39.81
52935;BME280;38802;50.198;19.796;2023-05-12T12:46:05;96464.55;;;17.84;39.87
52935;BME280;38802;50.198;19.796;2023-05-12T12:48:33;96466.95;;;17.82;39.48
52935;BME280;38802;50.198;19.796;2023-05-12T12:51:02;96469.90;;;17.80;40.05
52935;BME280;38802;50.198;19.796;2023-05-12T12:53:30;96472.29;;;17.78;40.19
52935;BME280;38802;50.198;19.796;2023-05-12T12:55:58;96472.51;;;17.74;40.35
52935;BME280;38802;50.198;19.796;2023-05-12T12:58:26;96470.49;;;17.72;40.60
52935;BME280;38802;50.198;19.796;2023-05-12T13:00:54;96474.73;;;17.71;40.36
52935;BME280;38802;50.198;19.796;2023-05-12T13:03:22;96472.34;;;17.69;39.94
52935;BME280;38802;50.198;19.796;2023-05-12T13:05:50;96473.63;;;17.60;40.30
52935;BME280;38802;50.198;19.796;2023-05-12T13:08:19;96468.61;;;17.51;40.33
52935;BME280;38802;50.198;19.796;2023-05-12T13:10:47;96472.89;;;17.41;40.53
52935;BME280;38802;50.198;19.796;2023-05-12T13:13:15;96468.77;;;17.32;40.66
52935;BME280;38802;50.198;19.796;2023-05-12T13:15:43;96466.48;;;17.23;40.67
52935;BME280;38802;50.198;19.796;2023-05-12T13:27:20;96470.79;;;17.08;40.10